createdAt,value
2023-01-31T00:01:33.600Z,85.92
2023-01-31T00:04:05.760Z,85.86
2023-01-31T00:06:38.937Z,86.90
2023-01-31T00:09:10.478Z,87.68
2023-01-31T00:11:41.840Z,87.74
2023-01-31T00:14:16.390Z,87.60
2023-01-31T00:16:47.437Z,87.39
2023-01-31T00:19:18.424Z,87.17
2023-01-31T00:21:49.536Z,87.93
2023-01-31T00:24:20.512Z,89.05
2023-01-31T00:26:57.132Z,90.73
2023-01-31T00:29:30.514Z,91.96
2023-01-31T00:32:01.781Z,91.99
2023-01-31T00:34:33.327Z,91.34
2023-01-31T00:37:04.705Z,90.27
2023-01-31T00:39:37.302Z,89.54
2023-01-31T00:42:08.644Z,89.44
2023-01-31T00:44:39.675Z,89.99
2023-01-31T00:47:10.671Z,90.97
2023-01-31T00:49:41.864Z,91.82
2023-01-31T00:52:12.964Z,92.35
2023-01-31T00:54:44.287Z,92.47
2023-01-31T00:57:15.598Z,92.03
2023-01-31T00:59:47.074Z,92.09
2023-01-31T01:02:18.159Z,92.63
2023-01-31T01:04:49.697Z,93.46
2023-01-31T01:07:21.317Z,93.47
2023-01-31T01:09:54.904Z,93.27
2023-01-31T01:12:26.038Z,92.27
2023-01-31T01:15:00.828Z,91.76
2023-01-31T01:17:32.678Z,91.52
2023-01-31T01:20:04.486Z,91.31
2023-01-31T01:22:36.840Z,91.41
2023-01-31T01:25:09.276Z,90.98
2023-01-31T01:27:40.593Z,90.34
2023-01-31T01:30:13.767Z,89.65
2023-01-31T01:32:45.411Z,89.65
2023-01-31T01:35:19.359Z,89.37
2023-01-31T01:37:50.735Z,89.32
2023-01-31T01:40:22.340Z,89.37
2023-01-31T01:42:53.498Z,89.70
2023-01-31T01:45:25.252Z,91.01
2023-01-31T01:47:57.457Z,93.04
2023-01-31T01:50:31.413Z,94.48
2023-01-31T01:53:05.235Z,94.70
2023-01-31T01:55:37.461Z,94.46
2023-01-31T01:58:10.195Z,94.91
2023-01-31T02:00:41.235Z,95.16
2023-01-31T02:03:12.484Z,94.43
2023-01-31T02:05:43.788Z,94.63
2023-01-31T02:08:15.356Z,94.70
2023-01-31T02:10:50.379Z,95.40
2023-01-31T02:13:21.884Z,95.40
2023-01-31T02:15:53.216Z,95.26
2023-01-31T02:18:25.473Z,94.75
2023-01-31T02:21:10.972Z,94.12
2023-01-31T02:24:10.533Z,93.41
2023-01-31T02:26:50.626Z,93.86
2023-01-31T02:29:36.101Z,95.52
2023-01-31T02:32:25.232Z,96.26
2023-01-31T02:34:59.361Z,96.36
2023-01-31T02:37:32.453Z,96.15
2023-01-31T02:40:09.231Z,95.93
2023-01-31T02:42:42.950Z,95.07
2023-01-31T02:45:15.221Z,94.46
2023-01-31T02:47:51.020Z,93.93
2023-01-31T02:50:25.855Z,93.85
2023-01-31T02:52:59.605Z,94.19
2023-01-31T02:55:53.760Z,94.70
2023-01-31T02:58:26.530Z,96.56
2023-01-31T03:00:58.792Z,99.76
2023-01-31T03:03:32.986Z,100.00
2023-01-31T03:06:27.359Z,100.00
2023-01-31T03:08:59.778Z,100.00
2023-01-31T03:11:32.140Z,100.00
2023-01-31T03:14:07.415Z,100.00
2023-01-31T03:16:56.991Z,100.00
2023-01-31T03:19:29.491Z,100.00
2023-01-31T03:22:02.136Z,100.00
2023-01-31T03:24:33.557Z,100.00
2023-01-31T03:27:05.531Z,100.00
2023-01-31T03:29:36.844Z,100.00
2023-01-31T03:32:13.546Z,100.00
2023-01-31T03:34:44.526Z,100.00
2023-01-31T03:37:17.867Z,100.00
2023-01-31T03:39:52.284Z,100.00
2023-01-31T03:42:24.865Z,100.00
2023-01-31T03:44:57.216Z,100.00
2023-01-31T03:47:29.395Z,100.00
2023-01-31T03:50:01.238Z,100.00
2023-01-31T03:52:33.342Z,100.00
2023-01-31T03:55:07.271Z,100.00
2023-01-31T03:57:40.640Z,100.00
2023-01-31T04:00:14.164Z,100.00
2023-01-31T04:02:52.128Z,100.00
2023-01-31T04:05:24.229Z,100.00
2023-01-31T04:07:58.481Z,100.00
2023-01-31T04:10:30.917Z,100.00
2023-01-31T04:13:06.247Z,100.00
2023-01-31T04:15:37.597Z,100.00
2023-01-31T04:18:08.899Z,100.00
2023-01-31T04:20:40.931Z,100.00
2023-01-31T04:23:12.658Z,100.00
2023-01-31T04:25:47.191Z,100.00
2023-01-31T04:28:18.474Z,100.00
2023-01-31T04:30:52.459Z,100.00
2023-01-31T04:33:23.635Z,100.00
2023-01-31T04:35:55.784Z,100.00
2023-01-31T04:38:27.151Z,100.00
2023-01-31T04:40:58.591Z,100.00
2023-01-31T04:43:29.808Z,100.00
2023-01-31T04:46:00.844Z,100.00
2023-01-31T04:48:33.477Z,100.00
2023-01-31T04:51:04.629Z,100.00
2023-01-31T04:53:36.280Z,100.00
2023-01-31T04:56:10.039Z,100.00
2023-01-31T04:58:41.828Z,100.00
2023-01-31T05:01:12.993Z,99.62
2023-01-31T05:03:44.481Z,99.82
2023-01-31T05:06:15.584Z,100.00
2023-01-31T05:08:46.745Z,100.00
2023-01-31T05:11:17.972Z,100.00
2023-01-31T05:13:49.951Z,99.87
2023-01-31T05:16:21.629Z,99.05
2023-01-31T05:18:52.923Z,98.89
2023-01-31T05:21:24.060Z,99.22
2023-01-31T05:23:55.388Z,99.69
2023-01-31T05:26:26.731Z,99.96
2023-01-31T05:29:00.816Z,100.00
2023-01-31T05:31:34.713Z,100.00
2023-01-31T05:34:07.107Z,100.00
2023-01-31T05:36:39.560Z,100.00
2023-01-31T05:39:11.084Z,100.00
2023-01-31T05:41:42.736Z,100.00
2023-01-31T05:44:14.804Z,100.00
2023-01-31T05:46:46.760Z,100.00
2023-01-31T05:49:18.355Z,100.00
2023-01-31T05:51:49.657Z,100.00
2023-01-31T05:54:20.832Z,100.00
2023-01-31T05:56:53.279Z,100.00
2023-01-31T05:59:26.704Z,100.00
2023-01-31T06:01:57.961Z,100.00
2023-01-31T06:04:29.907Z,100.00
2023-01-31T06:07:01.550Z,100.00
2023-01-31T06:09:34.971Z,100.00
2023-01-31T06:12:07.191Z,100.00
2023-01-31T06:14:39.809Z,100.00
2023-01-31T06:17:11.633Z,100.00
2023-01-31T06:19:43.530Z,100.00
2023-01-31T06:22:14.846Z,100.00
2023-01-31T06:24:46.374Z,100.00
2023-01-31T06:27:22.285Z,100.00
2023-01-31T06:29:53.726Z,100.00
2023-01-31T06:32:25.038Z,100.00
2023-01-31T06:34:56.611Z,100.00
2023-01-31T06:37:28.334Z,100.00
2023-01-31T06:40:00.163Z,100.00
2023-01-31T06:42:32.781Z,100.00
2023-01-31T06:45:04.406Z,100.00
2023-01-31T06:47:36.464Z,100.00
2023-01-31T06:50:09.248Z,100.00
2023-01-31T06:52:43.053Z,100.00
2023-01-31T06:55:15.220Z,100.00
2023-01-31T06:57:49.969Z,100.00
2023-01-31T07:00:22.522Z,100.00
2023-01-31T07:02:54.446Z,100.00
2023-01-31T07:05:25.931Z,100.00
2023-01-31T07:07:57.880Z,100.00
2023-01-31T07:10:29.468Z,100.00
2023-01-31T07:13:01.889Z,100.00
2023-01-31T07:15:33.927Z,100.00
2023-01-31T07:18:06.478Z,100.00
2023-01-31T07:20:39.640Z,100.00
2023-01-31T07:23:11.093Z,100.00
2023-01-31T07:25:42.757Z,100.00
2023-01-31T07:28:17.126Z,100.00
2023-01-31T07:30:50.652Z,100.00
2023-01-31T07:33:22.386Z,100.00
2023-01-31T07:35:53.428Z,100.00
2023-01-31T07:38:24.608Z,100.00
2023-01-31T07:40:56.170Z,100.00
2023-01-31T07:43:29.879Z,100.00
2023-01-31T07:46:02.459Z,100.00
2023-01-31T07:48:34.598Z,100.00
2023-01-31T07:51:06.573Z,100.00
2023-01-31T07:53:45.127Z,100.00
2023-01-31T07:56:17.760Z,100.00
2023-01-31T07:58:49.823Z,100.00
2023-01-31T08:01:39.399Z,100.00
2023-01-31T08:04:21.464Z,100.00
2023-01-31T08:06:54.853Z,100.00
2023-01-31T08:09:26.276Z,100.00
2023-01-31T08:11:59.591Z,100.00
2023-01-31T08:14:31.688Z,100.00
2023-01-31T08:17:02.774Z,100.00
2023-01-31T08:19:35.645Z,100.00
2023-01-31T08:22:06.823Z,100.00
2023-01-31T08:24:39.130Z,100.00
2023-01-31T08:27:10.827Z,100.00
2023-01-31T08:29:41.939Z,100.00
2023-01-31T08:32:13.496Z,100.00
2023-01-31T08:34:47.360Z,100.00
2023-01-31T08:37:18.902Z,100.00
2023-01-31T08:39:50.196Z,100.00
2023-01-31T08:42:21.302Z,99.95
2023-01-31T08:44:52.607Z,99.92
2023-01-31T08:47:28.127Z,99.93
2023-01-31T08:49:59.141Z,99.87
2023-01-31T08:52:35.609Z,99.08
2023-01-31T08:55:09.514Z,97.80
2023-01-31T08:57:52.956Z,97.84
2023-01-31T09:00:29.036Z,98.76
2023-01-31T09:03:00.640Z,99.61
2023-01-31T09:05:33.646Z,99.46
2023-01-31T09:08:04.845Z,99.54
2023-01-31T09:10:37.072Z,99.78
2023-01-31T09:13:10.008Z,100.00
2023-01-31T09:15:41.581Z,99.43
2023-01-31T09:18:12.558Z,99.35
2023-01-31T09:20:44.141Z,98.81
2023-01-31T09:23:15.651Z,98.59
2023-01-31T09:25:54.976Z,99.23
2023-01-31T09:28:26.147Z,98.88
2023-01-31T09:30:57.362Z,99.11
2023-01-31T09:33:28.818Z,99.45
2023-01-31T09:36:00.021Z,99.87
2023-01-31T09:38:31.246Z,100.00
2023-01-31T09:41:03.196Z,100.00
2023-01-31T09:43:36.151Z,100.00
2023-01-31T09:46:07.648Z,100.00
2023-01-31T09:48:39.055Z,100.00
2023-01-31T09:51:11.246Z,100.00
2023-01-31T09:53:42.646Z,100.00
2023-01-31T09:56:24.485Z,100.00
2023-01-31T09:58:58.494Z,100.00
2023-01-31T10:01:30.670Z,100.00
2023-01-31T10:04:14.670Z,100.00
2023-01-31T10:06:47.740Z,100.00
2023-01-31T10:09:21.845Z,100.00
2023-01-31T10:11:54.098Z,100.00
2023-01-31T10:14:27.979Z,100.00
2023-01-31T10:17:02.054Z,100.00
2023-01-31T10:19:34.399Z,100.00
2023-01-31T10:22:06.643Z,100.00
2023-01-31T10:24:40.929Z,100.00
2023-01-31T10:27:13.832Z,100.00
2023-01-31T10:29:46.253Z,100.00
2023-01-31T10:32:20.479Z,100.00
2023-01-31T10:34:53.953Z,100.00
2023-01-31T10:37:27.944Z,100.00
2023-01-31T10:40:00.544Z,100.00
2023-01-31T10:42:33.359Z,100.00
2023-01-31T10:45:05.278Z,100.00
2023-01-31T10:47:37.516Z,100.00
2023-01-31T10:50:15.107Z,100.00
2023-01-31T10:52:54.816Z,100.00
2023-01-31T10:55:33.674Z,100.00
2023-01-31T10:58:06.705Z,100.00
2023-01-31T11:00:39.390Z,100.00
2023-01-31T11:03:11.253Z,100.00
2023-01-31T11:05:45.351Z,100.00
2023-01-31T11:08:22.303Z,100.00
2023-01-31T11:10:54.040Z,100.00
2023-01-31T11:13:25.359Z,100.00
2023-01-31T11:15:57.778Z,100.00
2023-01-31T11:18:33.439Z,100.00
2023-01-31T11:21:04.662Z,100.00
2023-01-31T11:23:36.777Z,100.00
2023-01-31T11:26:08.601Z,100.00
2023-01-31T11:28:40.364Z,100.00
2023-01-31T11:31:17.335Z,100.00
2023-01-31T11:33:50.503Z,100.00
2023-01-31T11:36:23.288Z,100.00
2023-01-31T11:38:54.824Z,100.00
2023-01-31T11:41:33.813Z,100.00
2023-01-31T11:44:12.620Z,100.00
2023-01-31T11:46:46.178Z,100.00
2023-01-31T11:49:24.206Z,100.00
2023-01-31T11:51:55.631Z,100.00
2023-01-31T11:54:30.507Z,100.00
2023-01-31T11:57:01.780Z,100.00
2023-01-31T11:59:33.066Z,100.00
2023-01-31T12:02:04.246Z,100.00
2023-01-31T12:04:36.531Z,100.00
2023-01-31T12:07:07.991Z,100.00
2023-01-31T12:09:45.251Z,100.00
2023-01-31T12:12:28.241Z,100.00
2023-01-31T12:15:00.659Z,100.00
2023-01-31T12:17:34.241Z,100.00
2023-01-31T12:20:27.156Z,100.00
2023-01-31T12:23:04.326Z,100.00
2023-01-31T12:25:40.236Z,100.00
2023-01-31T12:28:14.509Z,100.00
2023-01-31T12:31:07.260Z,100.00
2023-01-31T12:33:42.450Z,100.00
2023-01-31T12:36:21.517Z,100.00
2023-01-31T12:38:56.706Z,100.00
2023-01-31T12:41:31.261Z,100.00
2023-01-31T12:44:16.609Z,100.00
2023-01-31T12:47:08.602Z,100.00
2023-01-31T12:49:45.400Z,100.00
2023-01-31T12:52:19.143Z,100.00
2023-01-31T12:54:56.648Z,100.00
2023-01-31T12:57:31.579Z,100.00
2023-01-31T13:00:05.199Z,100.00
2023-01-31T13:02:47.697Z,100.00
2023-01-31T13:05:24.266Z,100.00
2023-01-31T13:07:59.822Z,100.00
2023-01-31T13:10:37.375Z,100.00
2023-01-31T13:13:13.079Z,100.00
2023-01-31T13:15:46.378Z,100.00
2023-01-31T13:18:17.981Z,100.00
2023-01-31T13:20:50.363Z,100.00
2023-01-31T13:23:22.954Z,100.00
2023-01-31T13:25:55.394Z,100.00
2023-01-31T13:28:30.161Z,100.00
2023-01-31T13:31:01.740Z,100.00
2023-01-31T13:33:33.962Z,100.00
2023-01-31T13:36:17.268Z,100.00
2023-01-31T13:38:49.634Z,100.00
2023-01-31T13:41:41.210Z,100.00
2023-01-31T13:44:13.682Z,100.00
2023-01-31T13:46:45.932Z,100.00
2023-01-31T13:49:19.033Z,100.00
2023-01-31T13:51:50.892Z,100.00
2023-01-31T13:54:24.352Z,100.00
2023-01-31T13:56:55.878Z,100.00
2023-01-31T13:59:27.233Z,100.00
2023-01-31T14:02:02.106Z,100.00
2023-01-31T14:04:40.115Z,100.00
2023-01-31T14:07:18.624Z,100.00
2023-01-31T14:10:03.229Z,100.00
2023-01-31T14:12:37.911Z,100.00
2023-01-31T14:15:22.235Z,100.00
2023-01-31T14:18:02.272Z,100.00
2023-01-31T14:20:34.352Z,100.00
2023-01-31T14:23:23.475Z,100.00
2023-01-31T14:25:54.990Z,100.00
2023-01-31T14:28:26.744Z,100.00
2023-01-31T14:30:58.586Z,100.00
2023-01-31T14:33:30.615Z,100.00
2023-01-31T14:36:15.289Z,100.00
2023-01-31T14:38:49.571Z,100.00
2023-01-31T14:41:22.336Z,100.00
2023-01-31T14:43:57.881Z,100.00
2023-01-31T14:46:35.110Z,100.00
2023-01-31T14:49:17.115Z,100.00
2023-01-31T14:51:53.300Z,100.00
2023-01-31T14:54:37.844Z,100.00
2023-01-31T14:57:15.143Z,100.00
2023-01-31T14:59:48.021Z,100.00
2023-01-31T15:02:27.734Z,100.00
2023-01-31T15:04:59.384Z,100.00
2023-01-31T15:07:31.008Z,100.00
2023-01-31T15:10:02.503Z,100.00
2023-01-31T15:12:51.892Z,100.00
2023-01-31T15:15:25.429Z,100.00
2023-01-31T15:17:58.386Z,100.00
2023-01-31T15:20:32.037Z,100.00
2023-01-31T15:23:05.104Z,100.00
2023-01-31T15:25:38.359Z,100.00
2023-01-31T15:28:10.916Z,100.00
2023-01-31T15:30:42.207Z,100.00
2023-01-31T15:33:16.925Z,100.00
2023-01-31T15:35:50.109Z,100.00
2023-01-31T15:38:24.649Z,100.00
2023-01-31T15:41:17.362Z,100.00
2023-01-31T15:43:48.855Z,100.00
2023-01-31T15:46:26.970Z,100.00
2023-01-31T15:48:58.239Z,100.00
2023-01-31T15:51:30.197Z,100.00
2023-01-31T15:54:06.281Z,100.00
2023-01-31T15:56:38.406Z,100.00
2023-01-31T15:59:11.875Z,100.00
2023-01-31T16:01:42.914Z,100.00
2023-01-31T16:04:14.116Z,100.00
2023-01-31T16:06:47.509Z,100.00
2023-01-31T16:09:26.372Z,100.00
2023-01-31T16:11:57.609Z,100.00
2023-01-31T16:14:29.025Z,100.00
2023-01-31T16:17:00.254Z,100.00
2023-01-31T16:19:33.092Z,100.00
2023-01-31T16:22:04.065Z,100.00
2023-01-31T16:24:35.080Z,100.00
2023-01-31T16:27:07.386Z,100.00
2023-01-31T16:29:41.445Z,100.00
2023-01-31T16:32:17.498Z,100.00
2023-01-31T16:34:48.524Z,100.00
2023-01-31T16:37:19.848Z,100.00
2023-01-31T16:39:52.458Z,100.00
2023-01-31T16:42:26.157Z,100.00
2023-01-31T16:44:57.767Z,100.00
2023-01-31T16:47:43.655Z,100.00
2023-01-31T16:50:42.231Z,100.00
2023-01-31T16:53:19.481Z,100.00
2023-01-31T16:55:50.737Z,100.00
2023-01-31T16:58:37.262Z,100.00
2023-01-31T17:01:13.150Z,100.00
2023-01-31T17:03:44.421Z,100.00
2023-01-31T17:06:21.337Z,100.00
2023-01-31T17:08:55.590Z,100.00
2023-01-31T17:11:41.686Z,100.00
2023-01-31T17:14:15.111Z,100.00
2023-01-31T17:16:47.316Z,100.00
2023-01-31T17:19:18.531Z,100.00
2023-01-31T17:21:50.569Z,100.00
2023-01-31T17:24:22.810Z,100.00
2023-01-31T17:26:54.893Z,100.00
2023-01-31T17:29:27.715Z,100.00
2023-01-31T17:32:01.285Z,100.00
2023-01-31T17:34:34.023Z,100.00
2023-01-31T17:37:06.177Z,100.00
2023-01-31T17:39:37.719Z,100.00
2023-01-31T17:42:09.042Z,100.00
2023-01-31T17:44:40.127Z,100.00
2023-01-31T17:47:11.584Z,100.00
2023-01-31T17:49:44.959Z,100.00
2023-01-31T17:52:17.065Z,100.00
2023-01-31T17:54:49.019Z,100.00
2023-01-31T17:57:21.166Z,100.00
2023-01-31T17:59:53.535Z,100.00
2023-01-31T18:02:24.971Z,100.00
2023-01-31T18:04:56.480Z,100.00
2023-01-31T18:07:27.546Z,100.00
2023-01-31T18:09:58.802Z,100.00
2023-01-31T18:12:30.442Z,100.00
2023-01-31T18:15:01.761Z,100.00
2023-01-31T18:17:34.752Z,100.00
2023-01-31T18:20:06.844Z,100.00
2023-01-31T18:22:38.617Z,100.00
2023-01-31T18:25:11.566Z,100.00
2023-01-31T18:27:42.915Z,100.00
2023-01-31T18:30:15.291Z,100.00
2023-01-31T18:32:46.529Z,100.00
2023-01-31T18:35:21.898Z,100.00
2023-01-31T18:37:55.739Z,100.00
2023-01-31T18:40:28.399Z,100.00
2023-01-31T18:43:02.151Z,100.00
2023-01-31T18:45:34.285Z,100.00
2023-01-31T18:48:05.556Z,100.00
2023-01-31T18:50:36.795Z,100.00
2023-01-31T18:53:08.461Z,100.00
2023-01-31T18:55:39.427Z,100.00
2023-01-31T18:58:10.606Z,100.00
2023-01-31T19:00:41.895Z,100.00
2023-01-31T19:03:13.335Z,100.00
2023-01-31T19:05:45.065Z,100.00
2023-01-31T19:08:16.532Z,100.00
2023-01-31T19:10:47.755Z,100.00
2023-01-31T19:13:19.043Z,100.00
2023-01-31T19:15:50.753Z,100.00
2023-01-31T19:18:22.585Z,100.00
2023-01-31T19:20:53.955Z,100.00
2023-01-31T19:23:25.709Z,100.00
2023-01-31T19:25:57.071Z,100.00
2023-01-31T19:28:28.421Z,100.00
2023-01-31T19:31:04.618Z,100.00
2023-01-31T19:33:36.751Z,100.00
2023-01-31T19:36:12.543Z,100.00
2023-01-31T19:38:44.082Z,100.00
2023-01-31T19:41:17.301Z,100.00
2023-01-31T19:43:49.302Z,100.00
2023-01-31T19:46:20.791Z,100.00
2023-01-31T19:48:51.857Z,100.00
2023-01-31T19:51:23.544Z,100.00
2023-01-31T19:53:56.719Z,100.00
2023-01-31T19:56:28.224Z,100.00
2023-01-31T19:58:59.520Z,100.00
2023-01-31T20:01:31.149Z,100.00
2023-01-31T20:04:02.481Z,100.00
2023-01-31T20:06:34.833Z,100.00
2023-01-31T20:09:07.726Z,100.00
2023-01-31T20:11:38.943Z,100.00
2023-01-31T20:14:10.461Z,100.00
2023-01-31T20:16:41.762Z,100.00
2023-01-31T20:19:12.934Z,100.00
2023-01-31T20:21:44.224Z,100.00
2023-01-31T20:24:15.239Z,100.00
2023-01-31T20:26:46.462Z,100.00
2023-01-31T20:29:17.966Z,100.00
2023-01-31T20:31:51.554Z,100.00
2023-01-31T20:34:22.975Z,100.00
2023-01-31T20:36:54.318Z,100.00
2023-01-31T20:39:26.240Z,100.00
2023-01-31T20:41:58.636Z,100.00
2023-01-31T20:44:30.107Z,100.00
2023-01-31T20:47:01.715Z,100.00
2023-01-31T20:49:32.806Z,100.00
2023-01-31T20:52:04.011Z,100.00
2023-01-31T20:54:35.653Z,100.00
2023-01-31T20:57:06.973Z,100.00
2023-01-31T20:59:40.695Z,100.00
2023-01-31T21:02:14.520Z,100.00
2023-01-31T21:04:50.567Z,100.00
2023-01-31T21:07:22.549Z,100.00
2023-01-31T21:09:54.076Z,100.00
2023-01-31T21:12:25.543Z,100.00
2023-01-31T21:14:56.618Z,100.00
2023-01-31T21:17:39.147Z,100.00
2023-01-31T21:20:12.928Z,100.00
2023-01-31T21:22:44.137Z,100.00
2023-01-31T21:25:19.187Z,100.00
2023-01-31T21:27:53.482Z,100.00
2023-01-31T21:30:24.925Z,100.00
2023-01-31T21:32:56.240Z,100.00
2023-01-31T21:35:27.897Z,100.00
2023-01-31T21:37:59.222Z,100.00
2023-01-31T21:40:30.745Z,100.00
2023-01-31T21:43:01.805Z,100.00
2023-01-31T21:45:41.872Z,100.00
2023-01-31T21:48:31.392Z,100.00
2023-01-31T21:51:05.464Z,100.00
2023-01-31T21:53:36.872Z,100.00
2023-01-31T21:56:08.999Z,100.00
2023-01-31T21:58:40.457Z,100.00
2023-01-31T22:01:12.182Z,100.00
2023-01-31T22:03:44.188Z,100.00
2023-01-31T22:06:15.639Z,100.00
2023-01-31T22:08:47.020Z,100.00
2023-01-31T22:11:18.231Z,100.00
2023-01-31T22:13:52.674Z,100.00
2023-01-31T22:16:25.454Z,100.00
2023-01-31T22:18:57.237Z,100.00
2023-01-31T22:21:28.906Z,100.00
2023-01-31T22:24:00.408Z,100.00
2023-01-31T22:26:31.948Z,100.00
2023-01-31T22:29:03.730Z,100.00
2023-01-31T22:31:35.734Z,100.00
2023-01-31T22:34:07.522Z,100.00
2023-01-31T22:36:40.319Z,100.00
2023-01-31T22:39:12.280Z,100.00
2023-01-31T22:41:44.903Z,100.00
2023-01-31T22:44:16.304Z,100.00
2023-01-31T22:46:47.880Z,100.00
2023-01-31T22:49:19.554Z,100.00
2023-01-31T22:51:51.090Z,100.00
2023-01-31T22:54:22.425Z,100.00
2023-01-31T22:56:53.837Z,100.00
2023-01-31T22:59:24.935Z,100.00
2023-01-31T23:01:56.142Z,100.00
2023-01-31T23:04:28.030Z,100.00
2023-01-31T23:06:59.284Z,100.00
2023-01-31T23:09:30.801Z,100.00
2023-01-31T23:12:02.070Z,100.00
2023-01-31T23:14:33.644Z,100.00
2023-01-31T23:17:30.652Z,100.00
2023-01-31T23:20:01.754Z,100.00
2023-01-31T23:22:33.107Z,100.00
2023-01-31T23:25:04.092Z,100.00
2023-01-31T23:27:38.520Z,100.00
2023-01-31T23:30:11.388Z,100.00
2023-01-31T23:32:43.229Z,100.00
2023-01-31T23:35:18.860Z,100.00
2023-01-31T23:37:50.779Z,100.00
2023-01-31T23:40:22.841Z,100.00
2023-01-31T23:42:54.155Z,100.00
2023-01-31T23:45:26.195Z,100.00
2023-01-31T23:47:58.092Z,100.00
2023-01-31T23:50:29.279Z,100.00
2023-01-31T23:53:00.671Z,100.00
2023-01-31T23:55:32.359Z,100.00
2023-01-31T23:58:03.588Z,100.00
